Terminal Aerodrome Forecast
Issued by NWS Sterling, VA

Current Version | Previous Version | Graphics & Text | Print | Product List | Glossary On
Versions: 1 2 3 4 5 6 7 8 9 10 11 12 13 14 15 16 17 18 19 20 21 22 23 24 25 26 27 28 29 30 31 32 33 34 35
000
FTUS41 KLWX 221739
TAFDCA
TAF
KDCA 221739Z 2218/2318 24006KT P6SM VCTS BKN050CB
      TEMPO 2218/2220 VRB20G30KT 5SM -TSRA BKN030CB
     FM222000 24006KT P6SM -SHRA VCTS BKN070CB
     FM230600 24006KT P6SM BKN080=

USA.gov is the U.S. government's official web portal to all federal, state and local government web resources and services.